Time,TemperatureF,DewpointF,PressureIn,WindDirection,WindDirectionDegrees,WindSpeedMPH,WindSpeedGustMPH,Humidity,HourlyPrecipIn,Conditions,Clouds,dailyrainin,SoftwareType,DateUTC
2013-03-16 00:00:00,37.2,26.9,29.77,WSW,257,0.0,8.6,66,0.00,,SCT250,0.00,VWS V14.00,2013-03-16 04:00:00,
2013-03-16 00:01:00,37.3,26.9,29.77,West,266,4.3,8.6,66,0.00,,SCT250,0.00,VWS V14.00,2013-03-16 04:01:00,
2013-03-16 00:02:00,37.2,26.8,29.77,WSW,256,0.0,8.6,66,0.00,,SCT250,0.00,VWS V14.00,2013-03-16 04:02:00,
2013-03-16 00:03:00,37.3,27.0,29.77,WSW,256,0.0,8.6,66,0.00,,SCT250,0.00,VWS V14.00,2013-03-16 04:03:00,
2013-03-16 00:04:00,37.3,26.9,29.77,WSW,250,6.3,8.6,66,0.00,,SCT250,0.00,VWS V14.00,2013-03-16 04:04:00,
2013-03-16 00:07:00,37.2,26.9,29.77,West,260,3.4,8.6,66,0.00,,SCT250,0.00,VWS V14.00,2013-03-16 04:07:00,
2013-03-16 00:08:00,37.1,26.8,29.77,West,260,0.0,8.6,66,0.00,,SCT250,0.00,VWS V14.00,2013-03-16 04:08:00,
2013-03-16 00:09:00,37.2,26.9,29.77,West,260,0.0,8.6,66,0.00,,SCT250,0.00,VWS V14.00,2013-03-16 04:09:00,
2013-03-16 00:10:00,37.2,26.8,29.77,West,260,0.0,8.6,66,0.00,,SCT250,0.00,VWS V14.00,2013-03-16 04:10:00,
2013-03-16 00:11:00,37.8,27.2,29.76,WSW,245,0.0,0.0,65,0.00,,SCT250,0.00,VWS V14.00,2013-03-16 04:11:00,
2013-03-16 00:12:00,37.3,27.0,29.77,West,260,0.0,0.0,66,0.00,,SCT250,0.00,VWS V14.00,2013-03-16 04:12:00,
2013-03-16 00:13:00,37.2,26.8,29.77,West,260,0.0,0.0,66,0.00,,SCT250,0.00,VWS V14.00,2013-03-16 04:13:00,
2013-03-16 00:14:00,37.2,26.9,29.77,West,260,0.0,0.0,66,0.00,,SCT250,0.00,VWS V14.00,2013-03-16 04:14:00,
2013-03-16 00:16:00,37.9,27.0,29.77,West,276,0.0,10.3,65,0.00,,SCT250,0.00,VWS V14.00,2013-03-16 04:16:00,
2013-03-16 00:19:00,37.2,27.0,29.77,West,263,0.0,8.5,66,0.00,,SCT250,0.00,VWS V14.00,2013-03-16 04:19:00,
2013-03-16 00:22:00,37.7,26.8,29.77,WSW,253,0.0,9.0,64,0.00,,SCT250,0.00,VWS V14.00,2013-03-16 04:22:00,
2013-03-16 00:27:00,37.7,26.9,29.77,NE,39,0.0,9.5,65,0.00,,SCT250,0.00,VWS V14.00,2013-03-16 04:27:00,
2013-03-16 00:32:00,37.6,26.9,29.77,West,267,0.0,9.4,65,0.00,,SCT250,0.00,VWS V14.00,2013-03-16 04:32:00,
2013-03-16 00:37:00,37.6,27.0,29.77,SW,224,0.0,9.4,65,0.00,,SCT250,0.00,VWS V14.00,2013-03-16 04:37:00,
2013-03-16 00:42:00,37.6,26.7,29.77,West,259,0.0,9.5,64,0.00,,SCT250,0.00,VWS V14.00,2013-03-16 04:42:00,
2013-03-16 00:47:00,37.6,27.0,29.77,West,259,0.0,9.5,65,0.00,,SCT250,0.00,VWS V14.00,2013-03-16 04:47:00,
2013-03-16 00:52:00,37.4,27.0,29.77,West,259,0.0,0.0,66,0.00,,SCT250,0.00,VWS V14.00,2013-03-16 04:52:00,
2013-03-16 00:57:00,37.4,26.8,29.77,West,259,0.0,0.0,65,0.00,,SCT250,0.00,VWS V14.00,2013-03-16 04:57:00,
2013-03-16 01:02:00,37.2,26.8,29.77,WSW,256,0.0,8.6,66,0.00,,SCT250,0.00,VWS V14.00,2013-03-16 05:02:00,
2013-03-16 01:07:00,37.3,27.0,29.77,West,266,3.0,8.6,66,0.00,,SCT250,0.00,VWS V14.00,2013-03-16 05:07:00,
2013-03-16 01:12:00,37.3,27.0,29.77,West,260,0.0,0.0,66,0.00,,SCT250,0.00,VWS V14.00,2013-03-16 05:12:00,
2013-03-16 01:17:00,37.2,27.0,29.77,SW,233,0.0,8.5,66,0.00,,SCT250,0.00,VWS V14.00,2013-03-16 05:17:00,
2013-03-16 01:22:00,37.1,26.9,29.77,West,263,0.0,2.1,66,0.00,,SCT250,0.00,VWS V14.00,2013-03-16 05:22:00,
2013-03-16 01:27:00,37.0,27.0,29.76,West,263,0.0,2.1,67,0.00,,SCT250,0.00,VWS V14.00,2013-03-16 05:27:00,
2013-03-16 01:32:00,36.9,27.0,29.77,WNW,292,0.0,5.1,67,0.00,,SCT250,0.00,VWS V14.00,2013-03-16 05:32:00,
2013-03-16 01:37:00,36.8,26.9,29.77,WNW,292,0.0,5.1,67,0.00,,SCT250,0.00,VWS V14.00,2013-03-16 05:37:00,
2013-03-16 01:42:00,36.8,26.9,29.77,WNW,292,0.0,2.9,67,0.00,,SCT250,0.00,VWS V14.00,2013-03-16 05:42:00,
2013-03-16 01:48:00,36.8,27.0,29.77,WNW,292,0.0,2.9,67,0.00,,SCT250,0.00,VWS V14.00,2013-03-16 05:48:00,
2013-03-16 01:53:00,36.5,27.1,29.77,WNW,294,4.2,4.3,68,0.00,,SCT250,0.00,VWS V14.00,2013-03-16 05:53:00,
2013-03-16 01:58:00,36.2,26.7,29.77,WNW,292,0.0,4.3,68,0.00,,SCT250,0.00,VWS V14.00,2013-03-16 05:58:00,
2013-03-16 02:03:00,36.5,26.8,29.77,WSW,249,0.0,0.0,68,0.00,,SCT250,0.00,VWS V14.00,2013-03-16 06:03:00,
2013-03-16 02:08:00,36.4,26.8,29.77,WSW,249,0.0,0.0,68,0.00,,BKN250,0.00,VWS V14.00,2013-03-16 06:08:00,
2013-03-16 02:13:00,36.2,26.6,29.77,WSW,249,0.0,0.0,68,0.00,,BKN250,0.00,VWS V14.00,2013-03-16 06:13:00,
2013-03-16 02:18:00,36.0,26.6,29.77,WSW,249,0.0,0.0,68,0.00,,BKN250,0.00,VWS V14.00,2013-03-16 06:18:00,
2013-03-16 02:23:00,35.8,26.5,29.78,West,260,0.0,0.0,69,0.00,,BKN250,0.00,VWS V14.00,2013-03-16 06:23:00,
2013-03-16 02:28:00,35.7,26.8,29.78,West,260,0.0,0.0,70,0.00,,BKN250,0.00,VWS V14.00,2013-03-16 06:28:00,
2013-03-16 02:33:00,35.2,27.2,29.78,West,260,0.0,0.0,72,0.00,,BKN250,0.00,VWS V14.00,2013-03-16 06:33:00,
2013-03-16 02:38:00,35.0,26.1,29.78,WNW,297,0.0,5.6,70,0.00,,BKN250,0.00,VWS V14.00,2013-03-16 06:38:00,
2013-03-16 02:43:00,34.9,26.1,29.78,WNW,297,0.0,0.0,70,0.00,,BKN250,0.00,VWS V14.00,2013-03-16 06:43:00,
2013-03-16 02:48:00,35.0,26.6,29.78,WNW,297,0.0,0.0,71,0.00,,BKN250,0.00,VWS V14.00,2013-03-16 06:48:00,
2013-03-16 02:53:00,35.0,25.9,29.78,WNW,297,0.0,0.0,69,0.00,,BKN250,0.00,VWS V14.00,2013-03-16 06:53:00,
2013-03-16 02:58:00,35.1,25.8,29.79,WNW,297,0.0,0.0,68,0.00,,BKN250,0.00,VWS V14.00,2013-03-16 06:58:00,
2013-03-16 03:03:00,35.1,26.7,29.79,WNW,297,0.0,0.0,71,0.00,,BKN250,0.00,VWS V14.00,2013-03-16 07:03:00,
2013-03-16 03:08:00,35.3,26.2,29.79,WNW,297,0.0,0.0,69,0.00,,BKN250,0.00,VWS V14.00,2013-03-16 07:08:00,
2013-03-16 03:13:00,34.8,25.9,29.79,WNW,297,0.0,0.0,70,0.00,,BKN250,0.00,VWS V14.00,2013-03-16 07:13:00,
2013-03-16 03:18:00,34.5,26.5,29.79,WNW,297,0.0,0.0,72,0.00,,BKN250,0.00,VWS V14.00,2013-03-16 07:18:00,
2013-03-16 03:23:00,33.9,26.2,29.79,WNW,297,0.0,0.0,73,0.00,,BKN250,0.00,VWS V14.00,2013-03-16 07:23:00,
2013-03-16 03:28:00,33.3,25.8,29.79,WNW,297,0.0,0.0,74,0.00,,BKN250,0.00,VWS V14.00,2013-03-16 07:28:00,
2013-03-16 03:33:00,32.8,25.4,29.79,WNW,297,0.0,0.0,74,0.00,,BKN250,0.00,VWS V14.00,2013-03-16 07:33:00,
2013-03-16 03:38:00,32.3,25.0,29.79,WNW,297,0.0,0.0,74,0.00,,BKN250,0.00,VWS V14.00,2013-03-16 07:38:00,
2013-03-16 03:43:00,32.0,25.1,29.79,WNW,297,0.0,0.0,75,0.00,,BKN250,0.00,VWS V14.00,2013-03-16 07:43:00,
2013-03-16 03:48:00,31.6,25.3,29.80,WNW,297,0.0,0.0,77,0.00,,BKN250,0.00,VWS V14.00,2013-03-16 07:48:00,
2013-03-16 03:53:00,31.3,25.3,29.80,WNW,297,0.0,0.0,78,0.00,,BKN250,0.00,VWS V14.00,2013-03-16 07:53:00,
2013-03-16 03:58:00,31.0,25.1,29.80,WNW,297,0.0,0.0,78,0.00,,BKN250,0.00,VWS V14.00,2013-03-16 07:58:00,
2013-03-16 04:03:00,30.7,24.9,29.80,WNW,297,0.0,0.0,79,0.00,,BKN250,0.00,VWS V14.00,2013-03-16 08:03:00,
2013-03-16 04:08:00,30.4,25.0,29.80,WNW,297,0.0,0.0,80,0.00,,BKN250,0.00,VWS V14.00,2013-03-16 08:08:00,
2013-03-16 04:14:00,30.2,25.1,29.80,WNW,297,0.0,0.0,81,0.00,,BKN250,0.00,VWS V14.00,2013-03-16 08:14:00,
2013-03-16 04:19:00,30.0,25.1,29.81,WNW,297,0.0,0.0,82,0.00,,BKN250,0.00,VWS V14.00,2013-03-16 08:19:00,
2013-03-16 04:24:00,29.9,25.1,29.81,WNW,297,0.0,0.0,82,0.00,,BKN250,0.00,VWS V14.00,2013-03-16 08:24:00,
2013-03-16 04:29:00,29.9,25.0,29.80,WNW,297,0.0,0.0,82,0.00,,BKN250,0.00,VWS V14.00,2013-03-16 08:29:00,
2013-03-16 04:34:00,29.9,25.1,29.81,WNW,297,0.0,0.0,82,0.00,,BKN250,0.00,VWS V14.00,2013-03-16 08:34:00,
2013-03-16 04:39:00,29.9,25.1,29.81,WNW,297,0.0,0.0,82,0.00,,BKN250,0.00,VWS V14.00,2013-03-16 08:39:00,
2013-03-16 04:44:00,30.0,25.3,29.81,WNW,297,0.0,0.0,82,0.00,,BKN250,0.00,VWS V14.00,2013-03-16 08:44:00,
2013-03-16 04:49:00,30.1,25.4,29.81,WNW,297,0.0,0.0,82,0.00,,BKN250,0.00,VWS V14.00,2013-03-16 08:49:00,
2013-03-16 04:54:00,30.2,25.8,29.81,WNW,297,0.0,0.0,83,0.00,,BKN250,0.00,VWS V14.00,2013-03-16 08:54:00,
2013-03-16 04:59:00,30.3,25.9,29.82,WNW,297,0.0,0.0,83,0.00,,BKN250,0.00,VWS V14.00,2013-03-16 08:59:00,
2013-03-16 05:04:00,30.3,25.8,29.82,WNW,297,0.0,0.0,83,0.00,,SCT250,0.00,VWS V14.00,2013-03-16 09:04:00,
2013-03-16 05:09:00,30.4,25.9,29.82,WNW,297,0.0,0.0,83,0.00,,SCT250,0.00,VWS V14.00,2013-03-16 09:09:00,
2013-03-16 05:14:00,30.5,26.0,29.82,WNW,297,0.0,0.0,83,0.00,,SCT250,0.00,VWS V14.00,2013-03-16 09:14:00,
2013-03-16 05:20:00,30.6,26.2,29.82,WNW,297,0.0,0.0,84,0.00,,SCT250,0.00,VWS V14.00,2013-03-16 09:20:00,
2013-03-16 05:25:00,30.7,26.4,29.82,WNW,297,0.0,0.0,84,0.00,,SCT250,0.00,VWS V14.00,2013-03-16 09:25:00,
2013-03-16 05:30:00,30.9,26.4,29.83,WNW,297,0.0,0.0,83,0.00,,SCT250,0.00,VWS V14.00,2013-03-16 09:30:00,
2013-03-16 05:35:00,31.2,26.9,29.83,WNW,297,0.0,0.0,84,0.00,,SCT250,0.00,VWS V14.00,2013-03-16 09:35:00,
2013-03-16 05:40:00,31.4,27.2,29.83,WNW,297,0.0,0.0,84,0.00,,SCT250,0.00,VWS V14.00,2013-03-16 09:40:00,
2013-03-16 05:45:00,31.5,27.3,29.83,WNW,297,0.0,0.0,84,0.00,,SCT250,0.00,VWS V14.00,2013-03-16 09:45:00,
2013-03-16 05:50:00,31.5,27.2,29.83,WNW,297,0.0,0.0,84,0.00,,SCT250,0.00,VWS V14.00,2013-03-16 09:50:00,
2013-03-16 05:55:00,31.5,27.0,29.83,WNW,297,0.0,0.0,83,0.00,,SCT250,0.00,VWS V14.00,2013-03-16 09:55:00,
2013-03-16 06:00:00,31.4,26.5,29.83,WNW,297,0.0,0.0,82,0.00,,SCT250,0.00,VWS V14.00,2013-03-16 10:00:00,
2013-03-16 06:05:00,31.3,25.9,29.84,WNW,297,0.0,0.0,80,0.00,,BKN250,0.00,VWS V14.00,2013-03-16 10:05:00,
2013-03-16 06:10:00,31.2,25.2,29.84,WNW,297,0.0,0.0,78,0.00,,BKN250,0.00,VWS V14.00,2013-03-16 10:10:00,
2013-03-16 06:15:00,31.2,25.1,29.84,WNW,297,0.0,0.0,78,0.00,,BKN250,0.00,VWS V14.00,2013-03-16 10:15:00,
2013-03-16 06:20:00,31.2,25.2,29.84,WNW,297,0.0,0.0,78,0.00,,BKN250,0.00,VWS V14.00,2013-03-16 10:20:00,
2013-03-16 06:25:00,31.1,24.8,29.84,WNW,297,0.0,0.0,77,0.00,,BKN250,0.00,VWS V14.00,2013-03-16 10:25:00,
2013-03-16 06:30:00,30.9,24.3,29.84,WNW,297,0.0,0.0,76,0.00,,BKN250,0.00,VWS V14.00,2013-03-16 10:30:00,
2013-03-16 06:35:00,30.9,24.1,29.85,WNW,297,0.0,0.0,76,0.00,,BKN250,0.00,VWS V14.00,2013-03-16 10:35:00,
2013-03-16 06:40:00,30.9,24.4,29.85,WNW,297,0.0,0.0,76,0.00,,BKN250,0.00,VWS V14.00,2013-03-16 10:40:00,
2013-03-16 06:45:00,30.8,24.6,29.85,WNW,297,0.0,0.0,78,0.00,,BKN250,0.00,VWS V14.00,2013-03-16 10:45:00,
2013-03-16 06:50:00,30.6,24.4,29.85,WNW,297,0.0,0.0,78,0.00,,BKN250,0.00,VWS V14.00,2013-03-16 10:50:00,
2013-03-16 06:55:00,30.5,24.3,29.85,WNW,297,0.0,0.0,78,0.00,,BKN250,0.00,VWS V14.00,2013-03-16 10:55:00,
2013-03-16 07:00:00,30.4,24.4,29.86,WNW,297,0.0,0.0,78,0.00,,BKN250,0.00,VWS V14.00,2013-03-16 11:00:00,
2013-03-16 07:06:00,30.4,24.6,29.86,WNW,297,0.0,0.0,79,0.00,,BKN250,0.00,VWS V14.00,2013-03-16 11:06:00,
2013-03-16 07:11:00,30.3,24.4,29.86,WNW,297,0.0,0.0,78,0.00,,BKN250,0.00,VWS V14.00,2013-03-16 11:11:00,
2013-03-16 07:16:00,30.3,24.6,29.85,WNW,297,0.0,0.0,79,0.00,,BKN250,0.00,VWS V14.00,2013-03-16 11:16:00,
2013-03-16 07:21:00,30.2,24.4,29.85,WNW,297,0.0,0.0,79,0.00,,BKN250,0.00,VWS V14.00,2013-03-16 11:21:00,
2013-03-16 07:28:00,30.1,24.1,29.86,WNW,297,0.0,0.0,78,0.00,,BKN250,0.00,VWS V14.00,2013-03-16 11:28:00,
2013-03-16 07:33:00,30.1,24.2,29.85,WNW,297,0.0,0.0,78,0.00,,BKN250,0.00,VWS V14.00,2013-03-16 11:33:00,
2013-03-16 07:38:00,30.2,24.4,29.85,WNW,297,0.0,0.0,79,0.00,,BKN250,0.00,VWS V14.00,2013-03-16 11:38:00,
2013-03-16 07:43:00,30.3,24.1,29.86,WNW,297,0.0,0.0,78,0.00,,BKN250,0.00,VWS V14.00,2013-03-16 11:43:00,
2013-03-16 07:48:00,30.2,24.1,29.86,WNW,297,0.0,0.0,78,0.00,,BKN250,0.00,VWS V14.00,2013-03-16 11:48:00,
2013-03-16 07:53:00,30.2,24.0,29.86,WNW,297,0.0,0.0,78,0.00,,BKN250,0.00,VWS V14.00,2013-03-16 11:53:00,
2013-03-16 07:58:00,30.2,24.3,29.86,WNW,297,0.0,0.0,78,0.00,,BKN250,0.00,VWS V14.00,2013-03-16 11:58:00,
2013-03-16 08:03:00,30.2,23.7,29.86,WNW,297,0.0,0.0,76,0.00,,BKN250,0.00,VWS V14.00,2013-03-16 12:03:00,
2013-03-16 08:08:00,30.3,23.8,29.87,WNW,297,0.0,0.0,76,0.00,,SCT250,0.00,VWS V14.00,2013-03-16 12:08:00,
2013-03-16 08:13:00,30.5,23.9,29.87,WNW,297,0.0,0.0,76,0.00,,SCT250,0.00,VWS V14.00,2013-03-16 12:13:00,
2013-03-16 08:18:00,30.6,23.4,29.87,WNW,297,0.0,0.0,74,0.00,,SCT250,0.00,VWS V14.00,2013-03-16 12:18:00,
2013-03-16 08:23:00,30.8,23.0,29.87,WNW,297,0.0,0.0,72,0.00,,SCT250,0.00,VWS V14.00,2013-03-16 12:23:00,
2013-03-16 08:28:00,31.1,22.6,29.87,NE,35,0.0,4.7,70,0.00,,SCT250,0.00,VWS V14.00,2013-03-16 12:28:00,
2013-03-16 08:33:00,31.3,22.8,29.87,NE,35,0.0,2.9,70,0.00,,SCT250,0.00,VWS V14.00,2013-03-16 12:33:00,
2013-03-16 08:38:00,31.4,22.5,29.87,ENE,62,0.0,3.0,69,0.00,,SCT250,0.00,VWS V14.00,2013-03-16 12:38:00,
2013-03-16 08:43:00,31.3,22.1,29.88,ENE,62,0.0,0.0,68,0.00,,SCT250,0.00,VWS V14.00,2013-03-16 12:43:00,
2013-03-16 08:48:00,31.4,22.2,29.87,ENE,62,0.0,1.6,68,0.00,,SCT250,0.00,VWS V14.00,2013-03-16 12:48:00,
2013-03-16 08:53:00,31.3,21.5,29.88,NE,39,0.0,0.0,67,0.00,,SCT250,0.00,VWS V14.00,2013-03-16 12:53:00,
2013-03-16 08:58:00,31.3,21.5,29.88,NE,39,0.0,3.0,66,0.00,,SCT250,0.00,VWS V14.00,2013-03-16 12:58:00,
2013-03-16 09:03:00,31.2,21.1,29.88,NE,34,0.0,0.0,66,0.00,,SCT250,0.00,VWS V14.00,2013-03-16 13:03:00,
2013-03-16 09:08:00,31.1,20.9,29.88,NNE,27,0.0,6.8,66,0.00,,SCT250,0.00,VWS V14.00,2013-03-16 13:08:00,
2013-03-16 09:13:00,31.2,21.7,29.88,NNE,24,0.0,0.0,67,0.00,,SCT250,0.00,VWS V14.00,2013-03-16 13:13:00,
2013-03-16 09:18:00,31.4,21.8,29.88,NNE,24,0.0,0.0,67,0.00,,SCT250,0.00,VWS V14.00,2013-03-16 13:18:00,
2013-03-16 09:23:00,31.5,22.2,29.88,NNE,24,0.0,0.0,68,0.00,,SCT250,0.00,VWS V14.00,2013-03-16 13:23:00,
2013-03-16 09:28:00,31.5,21.9,29.88,NNE,24,0.0,0.0,67,0.00,,SCT250,0.00,VWS V14.00,2013-03-16 13:28:00,
2013-03-16 09:34:00,31.7,22.4,29.87,NNE,24,0.0,0.0,68,0.00,,SCT250,0.00,VWS V14.00,2013-03-16 13:34:00,
2013-03-16 09:39:00,31.8,22.2,29.87,NNE,24,0.0,0.0,67,0.00,,SCT250,0.00,VWS V14.00,2013-03-16 13:39:00,
2013-03-16 09:44:00,31.9,21.6,29.87,NNE,24,0.0,0.0,65,0.00,,SCT250,0.00,VWS V14.00,2013-03-16 13:44:00,
2013-03-16 09:49:00,32.0,21.9,29.87,NNE,24,0.0,0.0,66,0.00,,SCT250,0.00,VWS V14.00,2013-03-16 13:49:00,
2013-03-16 09:54:00,32.2,21.9,29.87,NNE,24,0.0,0.0,65,0.00,,SCT250,0.00,VWS V14.00,2013-03-16 13:54:00,
2013-03-16 09:59:00,32.3,21.4,29.86,NNE,24,0.0,4.5,64,0.00,,SCT250,0.00,VWS V14.00,2013-03-16 13:59:00,
2013-03-16 10:04:00,32.3,21.5,29.87,NNE,24,0.0,0.0,64,0.00,,BKN250,0.00,VWS V14.00,2013-03-16 14:04:00,
2013-03-16 10:09:00,32.6,22.0,29.86,NNE,24,0.0,0.0,65,0.00,,BKN250,0.00,VWS V14.00,2013-03-16 14:09:00,
2013-03-16 10:14:00,32.8,22.4,29.86,NNE,24,0.0,0.0,65,0.00,,BKN250,0.00,VWS V14.00,2013-03-16 14:14:00,
2013-03-16 10:19:00,33.1,22.0,29.86,North,11,0.0,5.9,63,0.00,,BKN250,0.00,VWS V14.00,2013-03-16 14:19:00,
2013-03-16 10:24:00,33.1,22.1,29.87,North,11,0.0,0.0,64,0.00,,BKN250,0.00,VWS V14.00,2013-03-16 14:24:00,
2013-03-16 10:29:00,33.2,22.0,29.86,North,11,0.0,0.0,63,0.00,,BKN250,0.00,VWS V14.00,2013-03-16 14:29:00,
2013-03-16 10:34:00,33.0,22.1,29.87,North,11,0.0,0.0,64,0.00,,BKN250,0.00,VWS V14.00,2013-03-16 14:34:00,
2013-03-16 10:39:00,33.2,21.8,29.86,North,11,0.0,0.0,62,0.00,,BKN250,0.00,VWS V14.00,2013-03-16 14:39:00,
2013-03-16 10:44:00,33.5,23.1,29.86,NE,39,0.0,0.0,65,0.00,,BKN250,0.00,VWS V14.00,2013-03-16 14:44:00,
2013-03-16 10:49:00,33.8,21.6,29.85,NE,39,0.0,0.0,60,0.00,,BKN250,0.00,VWS V14.00,2013-03-16 14:49:00,
2013-03-16 10:54:00,34.1,22.3,29.85,NE,39,0.0,0.0,62,0.00,,BKN250,0.00,VWS V14.00,2013-03-16 14:54:00,
2013-03-16 10:59:00,34.2,21.9,29.85,NE,39,0.0,0.0,60,0.00,,BKN250,0.00,VWS V14.00,2013-03-16 14:59:00,
2013-03-16 11:05:00,34.4,22.2,29.85,NE,39,0.0,0.0,61,0.00,,CLR,0.00,VWS V14.00,2013-03-16 15:05:00,
2013-03-16 11:10:00,34.6,22.6,29.85,NE,39,0.0,0.0,61,0.00,,CLR,0.00,VWS V14.00,2013-03-16 15:10:00,
2013-03-16 11:15:00,34.7,22.1,29.84,NE,39,0.0,0.0,60,0.00,,CLR,0.00,VWS V14.00,2013-03-16 15:15:00,
2013-03-16 11:20:00,34.7,22.5,29.84,NE,39,0.0,0.0,61,0.00,,CLR,0.00,VWS V14.00,2013-03-16 15:20:00,
2013-03-16 11:25:00,34.6,23.1,29.85,NE,39,0.0,0.0,62,0.00,,CLR,0.00,VWS V14.00,2013-03-16 15:25:00,
2013-03-16 11:30:00,34.8,22.5,29.85,NE,39,0.0,0.0,60,0.00,,CLR,0.00,VWS V14.00,2013-03-16 15:30:00,
2013-03-16 11:35:00,34.7,22.1,29.86,NW,304,0.0,5.7,60,0.00,,CLR,0.00,VWS V14.00,2013-03-16 15:35:00,
2013-03-16 11:40:00,34.9,22.0,29.85,NW,304,0.0,5.7,59,0.00,,CLR,0.00,VWS V14.00,2013-03-16 15:40:00,
2013-03-16 11:45:00,35.0,22.9,29.85,NW,304,0.0,0.0,61,0.00,,CLR,0.00,VWS V14.00,2013-03-16 15:45:00,
2013-03-16 11:50:00,35.2,22.3,29.85,NW,304,0.0,0.0,59,0.00,,CLR,0.00,VWS V14.00,2013-03-16 15:50:00,
2013-03-16 11:55:00,35.5,22.3,29.85,NW,304,0.0,0.0,58,0.00,,CLR,0.00,VWS V14.00,2013-03-16 15:55:00,
2013-03-16 12:00:00,35.5,22.6,29.84,NW,304,0.0,0.0,59,0.00,,CLR,0.00,VWS V14.00,2013-03-16 16:00:00,
2013-03-16 12:05:00,35.5,22.9,29.84,NW,304,0.0,3.2,60,0.00,,BKN250,0.00,VWS V14.00,2013-03-16 16:05:00,
2013-03-16 12:10:00,35.8,22.7,29.84,NW,304,0.0,0.0,58,0.00,,BKN250,0.00,VWS V14.00,2013-03-16 16:10:00,
2013-03-16 12:16:00,36.2,23.4,29.84,NW,304,0.0,0.0,59,0.00,,BKN250,0.00,VWS V14.00,2013-03-16 16:16:00,
2013-03-16 12:21:00,36.4,23.7,29.83,NW,304,0.0,0.0,60,0.00,,BKN250,0.00,VWS V14.00,2013-03-16 16:21:00,
2013-03-16 12:26:00,36.6,23.0,29.83,NW,304,0.0,0.0,58,0.00,,BKN250,0.00,VWS V14.00,2013-03-16 16:26:00,
2013-03-16 12:31:00,36.7,22.8,29.82,NW,304,0.0,0.0,57,0.00,,BKN250,0.00,VWS V14.00,2013-03-16 16:31:00,
2013-03-16 12:36:00,36.8,23.2,29.83,NW,304,0.0,0.0,57,0.00,,BKN250,0.00,VWS V14.00,2013-03-16 16:36:00,
2013-03-16 12:41:00,36.8,23.1,29.83,NW,304,0.0,0.0,57,0.00,,BKN250,0.00,VWS V14.00,2013-03-16 16:41:00,
2013-03-16 12:47:00,36.8,23.2,29.83,NW,304,0.0,0.0,57,0.00,,BKN250,0.00,VWS V14.00,2013-03-16 16:47:00,
2013-03-16 12:52:00,36.9,24.5,29.83,NW,304,0.0,0.0,60,0.00,,BKN250,0.00,VWS V14.00,2013-03-16 16:52:00,
2013-03-16 12:57:00,37.2,23.7,29.83,NW,304,0.0,0.0,58,0.00,,BKN250,0.00,VWS V14.00,2013-03-16 16:57:00,
2013-03-16 13:02:00,37.3,23.7,29.82,NW,304,0.0,0.0,58,0.00,,BKN250,0.00,VWS V14.00,2013-03-16 17:02:00,
2013-03-16 13:07:00,37.2,23.0,29.83,NW,304,0.0,0.0,56,0.00,,SCT250,0.00,VWS V14.00,2013-03-16 17:07:00,
2013-03-16 13:12:00,37.1,23.1,29.82,NW,304,0.0,0.0,57,0.00,,SCT250,0.00,VWS V14.00,2013-03-16 17:12:00,
2013-03-16 13:17:00,37.2,22.6,29.82,West,273,0.0,5.3,55,0.00,,SCT250,0.00,VWS V14.00,2013-03-16 17:17:00,
2013-03-16 13:22:00,37.1,22.9,29.82,West,273,0.0,0.0,56,0.00,,SCT250,0.00,VWS V14.00,2013-03-16 17:22:00,
2013-03-16 13:27:00,37.1,23.5,29.82,West,273,0.0,0.0,57,0.00,,SCT250,0.00,VWS V14.00,2013-03-16 17:27:00,
2013-03-16 13:33:00,37.0,23.8,29.82,North,359,0.0,5.5,58,0.00,,SCT250,0.00,VWS V14.00,2013-03-16 17:33:00,
2013-03-16 13:38:00,36.5,24.3,29.82,North,359,0.0,5.5,61,0.00,,SCT250,0.00,VWS V14.00,2013-03-16 17:38:00,
2013-03-16 13:43:00,36.4,25.2,29.81,WSW,245,5.0,5.0,64,0.00,,SCT250,0.00,VWS V14.00,2013-03-16 17:43:00,
2013-03-16 13:48:00,36.2,25.1,29.81,SW,221,0.0,5.0,64,0.00,,SCT250,0.00,VWS V14.00,2013-03-16 17:48:00,
2013-03-16 13:53:00,36.0,25.1,29.81,SW,221,0.0,0.0,64,0.00,,SCT250,0.00,VWS V14.00,2013-03-16 17:53:00,
2013-03-16 13:58:00,35.8,24.6,29.82,SW,221,0.0,0.0,64,0.00,,SCT250,0.00,VWS V14.00,2013-03-16 17:58:00,
2013-03-16 14:03:00,35.8,26.0,29.82,WSW,242,0.0,5.8,67,0.00,,SCT250,0.00,VWS V14.00,2013-03-16 18:03:00,
2013-03-16 14:08:00,35.3,27.3,29.83,WSW,242,0.0,5.8,72,0.00,,SCT250,0.00,VWS V14.00,2013-03-16 18:08:00,
2013-03-16 14:13:00,34.8,28.0,29.83,WSW,242,0.0,0.0,76,0.00,,SCT250,0.00,VWS V14.00,2013-03-16 18:13:00,
2013-03-16 14:18:00,34.1,28.4,29.83,WSW,242,0.0,0.0,79,0.00,,SCT250,0.00,VWS V14.00,2013-03-16 18:18:00,
2013-03-16 14:23:00,33.3,29.1,29.83,WSW,252,0.0,6.2,84,0.00,,SCT250,0.00,VWS V14.00,2013-03-16 18:23:00,
2013-03-16 14:29:00,32.8,29.0,29.83,SW,236,0.0,6.2,86,0.00,,SCT250,0.00,VWS V14.00,2013-03-16 18:29:00,
2013-03-16 14:34:00,32.2,28.7,29.83,WSW,253,2.5,6.6,87,0.00,,SCT250,0.00,VWS V14.00,2013-03-16 18:34:00,
2013-03-16 14:39:00,31.9,28.9,29.84,WSW,249,0.0,6.6,88,0.00,,SCT250,0.00,VWS V14.00,2013-03-16 18:39:00,
2013-03-16 14:44:00,31.7,29.0,29.84,West,259,0.0,5.1,89,0.00,,SCT250,0.00,VWS V14.00,2013-03-16 18:44:00,
2013-03-16 14:49:00,31.6,29.0,29.83,West,259,0.0,5.1,90,0.00,,SCT250,0.00,VWS V14.00,2013-03-16 18:49:00,
2013-03-16 14:54:00,31.6,29.3,29.83,West,259,0.0,0.0,91,0.00,,SCT250,0.00,VWS V14.00,2013-03-16 18:54:00,
2013-03-16 14:59:00,31.6,29.2,29.83,West,259,0.0,0.0,91,0.00,,SCT250,0.00,VWS V14.00,2013-03-16 18:59:00,
2013-03-16 15:04:00,31.7,29.4,29.83,West,259,0.0,0.0,91,0.00,,SCT250,0.00,VWS V14.00,2013-03-16 19:04:00,
2013-03-16 15:09:00,31.7,29.4,29.82,West,259,0.0,0.0,91,0.00,,SCT250,0.00,VWS V14.00,2013-03-16 19:09:00,
2013-03-16 15:14:00,31.7,29.4,29.82,West,259,0.0,0.0,91,0.00,,SCT250,0.00,VWS V14.00,2013-03-16 19:14:00,
2013-03-16 15:19:00,31.5,29.3,29.82,West,259,0.0,0.0,91,0.00,,SCT250,0.00,VWS V14.00,2013-03-16 19:19:00,
2013-03-16 15:24:00,31.6,29.4,29.81,West,259,0.0,0.0,91,0.00,,SCT250,0.00,VWS V14.00,2013-03-16 19:24:00,
2013-03-16 15:29:00,31.7,29.6,29.81,West,259,0.0,0.0,92,0.00,,SCT250,0.00,VWS V14.00,2013-03-16 19:29:00,
2013-03-16 15:34:00,31.7,29.5,29.81,West,259,0.0,0.0,92,0.00,,SCT250,0.00,VWS V14.00,2013-03-16 19:34:00,
2013-03-16 15:39:00,31.7,29.5,29.82,West,259,0.0,0.0,92,0.00,,SCT250,0.00,VWS V14.00,2013-03-16 19:39:00,
2013-03-16 15:45:00,31.6,29.5,29.81,West,259,0.0,0.0,92,0.00,,SCT250,0.00,VWS V14.00,2013-03-16 19:45:00,
2013-03-16 15:50:00,31.6,29.5,29.81,West,259,0.0,0.0,92,0.00,,SCT250,0.00,VWS V14.00,2013-03-16 19:50:00,
2013-03-16 15:55:00,31.8,29.6,29.81,West,259,0.0,0.0,92,0.00,,SCT250,0.00,VWS V14.00,2013-03-16 19:55:00,
2013-03-16 16:00:00,31.8,29.7,29.81,West,259,0.0,0.0,92,0.00,,SCT250,0.00,VWS V14.00,2013-03-16 20:00:00,
2013-03-16 16:05:00,31.9,29.8,29.81,West,259,0.0,0.0,92,0.00,,BKN250,0.00,VWS V14.00,2013-03-16 20:05:00,
2013-03-16 16:10:00,32.1,30.0,29.80,West,259,0.0,0.0,92,0.00,,BKN250,0.00,VWS V14.00,2013-03-16 20:10:00,
2013-03-16 16:15:00,32.1,29.9,29.80,West,259,0.0,0.0,91,0.00,,BKN250,0.00,VWS V14.00,2013-03-16 20:15:00,
2013-03-16 16:20:00,32.1,29.9,29.81,West,259,0.0,0.0,91,0.00,,BKN250,0.00,VWS V14.00,2013-03-16 20:20:00,
2013-03-16 16:25:00,32.2,29.9,29.80,West,259,0.0,0.0,91,0.00,,BKN250,0.00,VWS V14.00,2013-03-16 20:25:00,
2013-03-16 16:30:00,32.3,30.0,29.79,West,259,0.0,0.0,91,0.00,,BKN250,0.00,VWS V14.00,2013-03-16 20:30:00,
2013-03-16 16:35:00,32.4,30.2,29.79,West,259,0.0,0.0,91,0.00,,BKN250,0.00,VWS V14.00,2013-03-16 20:35:00,
2013-03-16 16:40:00,32.5,30.2,29.79,West,259,0.0,0.0,91,0.00,,BKN250,0.00,VWS V14.00,2013-03-16 20:40:00,
2013-03-16 16:45:00,32.3,30.0,29.79,West,259,0.0,0.0,91,0.00,,BKN250,0.00,VWS V14.00,2013-03-16 20:45:00,
2013-03-16 16:50:00,32.4,30.0,29.79,West,259,0.0,0.0,91,0.00,,BKN250,0.00,VWS V14.00,2013-03-16 20:50:00,
2013-03-16 16:55:00,32.5,30.1,29.79,West,259,0.0,0.0,91,0.00,,BKN250,0.00,VWS V14.00,2013-03-16 20:55:00,
2013-03-16 17:01:00,32.6,30.1,29.79,West,259,0.0,0.0,90,0.00,,BKN250,0.00,VWS V14.00,2013-03-16 21:01:00,
2013-03-16 17:06:00,32.6,30.1,29.79,West,259,0.0,0.0,90,0.00,,BKN250,0.00,VWS V14.00,2013-03-16 21:06:00,
2013-03-16 17:11:00,32.5,30.1,29.79,West,259,0.0,0.0,91,0.00,,BKN250,0.00,VWS V14.00,2013-03-16 21:11:00,
2013-03-16 17:16:00,32.6,30.2,29.80,West,259,0.0,0.0,91,0.00,,BKN250,0.00,VWS V14.00,2013-03-16 21:16:00,
2013-03-16 17:22:00,32.7,30.3,29.79,West,259,0.0,0.0,91,0.00,,BKN250,0.00,VWS V14.00,2013-03-16 21:22:00,
2013-03-16 17:27:00,32.6,30.2,29.80,West,259,0.0,0.0,91,0.00,,BKN250,0.00,VWS V14.00,2013-03-16 21:27:00,
2013-03-16 17:32:00,32.7,30.3,29.80,West,259,0.0,0.0,91,0.00,,BKN250,0.00,VWS V14.00,2013-03-16 21:32:00,
2013-03-16 17:37:00,32.6,30.2,29.80,West,259,0.0,0.0,91,0.00,,BKN250,0.00,VWS V14.00,2013-03-16 21:37:00,
2013-03-16 17:42:00,32.7,30.3,29.80,West,259,0.0,0.0,91,0.00,,BKN250,0.00,VWS V14.00,2013-03-16 21:42:00,
2013-03-16 17:47:00,32.5,30.0,29.80,West,259,0.0,0.0,90,0.00,,BKN250,0.00,VWS V14.00,2013-03-16 21:47:00,
2013-03-16 17:52:00,32.4,29.8,29.80,West,259,0.0,0.0,90,0.00,,BKN250,0.00,VWS V14.00,2013-03-16 21:52:00,
2013-03-16 17:57:00,32.4,29.8,29.81,West,259,0.0,0.0,90,0.00,,BKN250,0.00,VWS V14.00,2013-03-16 21:57:00,
2013-03-16 18:02:00,32.4,29.9,29.80,West,259,0.0,0.0,90,0.00,,BKN250,0.00,VWS V14.00,2013-03-16 22:02:00,
2013-03-16 18:07:00,32.4,29.9,29.80,West,259,0.0,0.0,90,0.00,,FEW250,0.00,VWS V14.00,2013-03-16 22:07:00,
2013-03-16 18:12:00,32.4,29.9,29.81,West,259,0.0,0.0,90,0.00,,FEW250,0.00,VWS V14.00,2013-03-16 22:12:00,
2013-03-16 18:17:00,32.4,29.9,29.81,West,259,0.0,0.0,90,0.00,,FEW250,0.00,VWS V14.00,2013-03-16 22:17:00,
2013-03-16 18:22:00,32.5,30.0,29.81,West,259,0.0,0.0,90,0.00,,FEW250,0.00,VWS V14.00,2013-03-16 22:22:00,
2013-03-16 18:27:00,32.5,30.0,29.81,West,259,0.0,0.0,90,0.00,,FEW250,0.00,VWS V14.00,2013-03-16 22:27:00,
2013-03-16 18:32:00,32.5,30.1,29.81,West,259,0.0,0.0,91,0.00,,FEW250,0.00,VWS V14.00,2013-03-16 22:32:00,
2013-03-16 18:37:00,32.5,30.1,29.81,West,259,0.0,0.0,91,0.00,,FEW250,0.00,VWS V14.00,2013-03-16 22:37:00,
2013-03-16 18:42:00,32.5,30.1,29.80,West,259,0.0,0.0,91,0.00,,FEW250,0.00,VWS V14.00,2013-03-16 22:42:00,
2013-03-16 18:47:00,32.5,30.2,29.80,West,259,0.0,0.0,91,0.00,,FEW250,0.00,VWS V14.00,2013-03-16 22:47:00,
2013-03-16 18:52:00,32.5,30.2,29.81,West,259,0.0,0.0,91,0.00,,FEW250,0.00,VWS V14.00,2013-03-16 22:52:00,
2013-03-16 18:58:00,32.5,30.2,29.81,West,259,0.0,0.0,91,0.00,,FEW250,0.00,VWS V14.00,2013-03-16 22:58:00,
2013-03-16 19:03:00,32.5,30.2,29.82,West,259,0.0,0.0,91,0.00,,FEW250,0.00,VWS V14.00,2013-03-16 23:03:00,
2013-03-16 19:08:00,32.5,30.3,29.81,West,259,0.0,0.0,92,0.00,,SCT250,0.00,VWS V14.00,2013-03-16 23:08:00,
2013-03-16 19:13:00,32.5,30.4,29.82,West,259,0.0,0.0,92,0.00,,SCT250,0.00,VWS V14.00,2013-03-16 23:13:00,
2013-03-16 19:18:00,32.5,30.4,29.82,West,259,0.0,0.0,92,0.00,,SCT250,0.00,VWS V14.00,2013-03-16 23:18:00,
2013-03-16 19:23:00,32.5,30.4,29.82,West,259,0.0,0.0,92,0.00,,SCT250,0.00,VWS V14.00,2013-03-16 23:23:00,
2013-03-16 19:28:00,32.4,30.3,29.82,West,259,0.0,0.0,92,0.00,,SCT250,0.00,VWS V14.00,2013-03-16 23:28:00,
2013-03-16 19:33:00,32.4,30.3,29.83,West,259,0.0,0.0,92,0.00,,SCT250,0.00,VWS V14.00,2013-03-16 23:33:00,
2013-03-16 19:38:00,32.3,30.2,29.83,West,259,0.0,0.0,92,0.00,,SCT250,0.00,VWS V14.00,2013-03-16 23:38:00,
2013-03-16 19:43:00,32.2,30.1,29.83,West,259,0.0,0.0,92,0.00,,SCT250,0.00,VWS V14.00,2013-03-16 23:43:00,
2013-03-16 19:48:00,32.2,30.1,29.83,West,259,0.0,0.0,92,0.00,,SCT250,0.00,VWS V14.00,2013-03-16 23:48:00,
2013-03-16 19:53:00,32.2,30.1,29.84,West,259,0.0,0.0,92,0.00,,SCT250,0.00,VWS V14.00,2013-03-16 23:53:00,
2013-03-16 19:58:00,32.2,30.1,29.84,West,259,0.0,0.0,92,0.00,,SCT250,0.00,VWS V14.00,2013-03-16 23:58:00,
2013-03-16 20:04:00,32.2,30.1,29.84,West,259,0.0,0.0,92,0.00,,BKN250,0.00,VWS V14.00,2013-03-17 00:04:00,
2013-03-16 20:09:00,32.2,30.1,29.84,West,259,0.0,0.0,92,0.00,,BKN250,0.00,VWS V14.00,2013-03-17 00:09:00,
2013-03-16 20:14:00,32.1,30.0,29.84,West,259,0.0,0.0,92,0.00,,BKN250,0.00,VWS V14.00,2013-03-17 00:14:00,
2013-03-16 20:19:00,32.1,29.9,29.84,West,259,0.0,0.0,92,0.00,,BKN250,0.00,VWS V14.00,2013-03-17 00:19:00,
2013-03-16 20:24:00,32.1,29.9,29.84,West,259,0.0,0.0,92,0.00,,BKN250,0.00,VWS V14.00,2013-03-17 00:24:00,
2013-03-16 20:29:00,32.0,29.8,29.85,West,259,0.0,0.0,91,0.00,,BKN250,0.00,VWS V14.00,2013-03-17 00:29:00,
2013-03-16 20:34:00,32.0,29.8,29.85,West,259,0.0,0.0,91,0.00,,BKN250,0.00,VWS V14.00,2013-03-17 00:34:00,
2013-03-16 20:39:00,32.0,29.8,29.85,West,259,0.0,0.0,91,0.00,,BKN250,0.00,VWS V14.00,2013-03-17 00:39:00,
2013-03-16 20:44:00,32.0,29.8,29.85,West,259,0.0,0.0,92,0.00,,BKN250,0.00,VWS V14.00,2013-03-17 00:44:00,
2013-03-16 20:49:00,32.0,29.8,29.84,West,259,0.0,0.0,92,0.00,,BKN250,0.00,VWS V14.00,2013-03-17 00:49:00,
2013-03-16 20:54:00,32.0,29.9,29.85,West,259,0.0,0.0,92,0.00,,BKN250,0.00,VWS V14.00,2013-03-17 00:54:00,
2013-03-16 20:59:00,32.0,29.9,29.84,West,259,0.0,0.0,92,0.00,,BKN250,0.00,VWS V14.00,2013-03-17 00:59:00,
2013-03-16 21:04:00,32.0,29.9,29.86,West,259,0.0,0.0,92,0.00,,FEW250,0.00,VWS V14.00,2013-03-17 01:04:00,
2013-03-16 21:09:00,31.9,29.8,29.85,West,259,0.0,0.0,92,0.00,,FEW250,0.00,VWS V14.00,2013-03-17 01:09:00,
2013-03-16 21:14:00,32.0,29.9,29.86,West,259,0.0,0.0,92,0.00,,FEW250,0.00,VWS V14.00,2013-03-17 01:14:00,
2013-03-16 21:19:00,32.0,29.9,29.87,West,259,0.0,0.0,92,0.00,,FEW250,0.00,VWS V14.00,2013-03-17 01:19:00,
2013-03-16 21:24:00,32.0,29.9,29.87,West,259,0.0,0.0,92,0.00,,FEW250,0.00,VWS V14.00,2013-03-17 01:24:00,
2013-03-16 21:30:00,32.1,30.0,29.87,West,259,0.0,0.0,92,0.00,,FEW250,0.00,VWS V14.00,2013-03-17 01:30:00,
2013-03-16 21:35:00,32.0,29.9,29.87,West,259,0.0,0.0,92,0.00,,FEW250,0.00,VWS V14.00,2013-03-17 01:35:00,
2013-03-16 21:40:00,31.9,29.7,29.87,West,259,0.0,0.0,92,0.00,,FEW250,0.00,VWS V14.00,2013-03-17 01:40:00,
2013-03-16 21:45:00,32.0,29.8,29.88,West,259,0.0,0.0,92,0.00,,FEW250,0.00,VWS V14.00,2013-03-17 01:45:00,
2013-03-16 21:50:00,32.0,29.8,29.88,West,259,0.0,0.0,91,0.00,,FEW250,0.00,VWS V14.00,2013-03-17 01:50:00,
2013-03-16 21:55:00,32.0,29.8,29.87,West,259,0.0,0.0,91,0.00,,FEW250,0.00,VWS V14.00,2013-03-17 01:55:00,
2013-03-16 22:00:00,32.0,29.8,29.87,West,259,0.0,0.0,92,0.00,,FEW250,0.00,VWS V14.00,2013-03-17 02:00:00,
2013-03-16 22:05:00,32.0,29.8,29.88,West,259,0.0,0.0,92,0.00,,FEW250,0.00,VWS V14.00,2013-03-17 02:05:00,
2013-03-16 22:10:00,32.0,29.8,29.88,West,259,0.0,0.0,91,0.00,,FEW250,0.00,VWS V14.00,2013-03-17 02:10:00,
2013-03-16 22:15:00,32.0,29.8,29.88,West,259,0.0,0.0,91,0.00,,FEW250,0.00,VWS V14.00,2013-03-17 02:15:00,
2013-03-16 22:20:00,31.9,29.7,29.88,West,259,0.0,0.0,92,0.00,,FEW250,0.00,VWS V14.00,2013-03-17 02:20:00,
2013-03-16 22:25:00,31.9,29.7,29.88,West,259,0.0,0.0,91,0.00,,FEW250,0.00,VWS V14.00,2013-03-17 02:25:00,
2013-03-16 22:30:00,31.9,29.7,29.88,West,259,0.0,0.0,92,0.00,,FEW250,0.00,VWS V14.00,2013-03-17 02:30:00,
2013-03-16 22:35:00,31.9,29.7,29.89,West,259,0.0,0.0,91,0.00,,FEW250,0.00,VWS V14.00,2013-03-17 02:35:00,
2013-03-16 22:40:00,31.8,29.6,29.89,West,259,0.0,0.0,91,0.00,,FEW250,0.00,VWS V14.00,2013-03-17 02:40:00,
2013-03-16 22:46:00,31.9,29.7,29.89,West,259,0.0,0.0,91,0.00,,FEW250,0.00,VWS V14.00,2013-03-17 02:46:00,
2013-03-16 22:51:00,31.9,29.7,29.89,West,259,0.0,0.0,91,0.00,,FEW250,0.00,VWS V14.00,2013-03-17 02:51:00,
2013-03-16 22:56:00,31.9,29.7,29.89,West,259,0.0,0.0,91,0.00,,FEW250,0.00,VWS V14.00,2013-03-17 02:56:00,
2013-03-16 22:59:00,31.8,29.5,29.91,West,259,0.0,0.0,91,0.00,,FEW250,0.00,VWS V14.00,2013-03-17 02:59:00,
2013-03-16 23:00:00,31.8,29.5,29.91,West,259,0.0,0.0,91,0.00,,FEW250,0.00,VWS V14.00,2013-03-17 03:00:00,
2013-03-16 23:01:00,31.9,29.7,29.89,West,259,0.0,0.0,91,0.00,,FEW250,0.00,VWS V14.00,2013-03-17 03:01:00,
2013-03-16 23:02:00,31.8,29.6,29.91,West,259,0.0,0.0,91,0.00,,FEW250,0.00,VWS V14.00,2013-03-17 03:02:00,
2013-03-16 23:03:00,31.8,29.6,29.91,West,259,0.0,0.0,91,0.00,,CLR,0.00,VWS V14.00,2013-03-17 03:03:00,
2013-03-16 23:04:00,31.8,29.6,29.91,West,259,0.0,0.0,91,0.00,,CLR,0.00,VWS V14.00,2013-03-17 03:04:00,
2013-03-16 23:05:00,31.8,29.5,29.91,West,259,0.0,0.0,91,0.00,,CLR,0.00,VWS V14.00,2013-03-17 03:05:00,
2013-03-16 23:06:00,31.9,29.6,29.89,West,259,0.0,0.0,91,0.00,,FEW250,0.00,VWS V14.00,2013-03-17 03:06:00,
2013-03-16 23:07:00,31.8,29.5,29.91,West,259,0.0,0.0,91,0.00,,CLR,0.00,VWS V14.00,2013-03-17 03:07:00,
2013-03-16 23:08:00,31.8,29.5,29.91,West,259,0.0,0.0,91,0.00,,CLR,0.00,VWS V14.00,2013-03-17 03:08:00,
2013-03-16 23:09:00,31.8,29.5,29.91,West,259,0.0,0.0,91,0.00,,CLR,0.00,VWS V14.00,2013-03-17 03:09:00,
2013-03-16 23:10:00,31.8,29.5,29.91,West,259,0.0,0.0,91,0.00,,CLR,0.00,VWS V14.00,2013-03-17 03:10:00,
2013-03-16 23:11:00,31.9,29.7,29.90,West,259,0.0,0.0,91,0.00,,FEW250,0.00,VWS V14.00,2013-03-17 03:11:00,
2013-03-16 23:12:00,31.8,29.5,29.91,West,259,0.0,0.0,91,0.00,,CLR,0.00,VWS V14.00,2013-03-17 03:12:00,
2013-03-16 23:13:00,31.8,29.5,29.92,West,259,0.0,0.0,91,0.00,,CLR,0.00,VWS V14.00,2013-03-17 03:13:00,
2013-03-16 23:14:00,31.8,29.6,29.92,West,259,0.0,0.0,91,0.00,,CLR,0.00,VWS V14.00,2013-03-17 03:14:00,
2013-03-16 23:15:00,31.8,29.5,29.91,West,259,0.0,0.0,91,0.00,,CLR,0.00,VWS V14.00,2013-03-17 03:15:00,
2013-03-16 23:16:00,31.9,29.6,29.90,West,259,0.0,0.0,91,0.00,,FEW250,0.00,VWS V14.00,2013-03-17 03:16:00,
2013-03-16 23:21:00,31.9,29.7,29.90,West,259,0.0,0.0,91,0.00,,FEW250,0.00,VWS V14.00,2013-03-17 03:21:00,
2013-03-16 23:26:00,31.8,29.5,29.90,West,259,0.0,0.0,91,0.00,,FEW250,0.00,VWS V14.00,2013-03-17 03:26:00,
2013-03-16 23:32:00,31.8,29.5,29.90,West,259,0.0,0.0,91,0.00,,FEW250,0.00,VWS V14.00,2013-03-17 03:32:00,
2013-03-16 23:37:00,31.8,29.5,29.90,West,259,0.0,0.0,91,0.00,,FEW250,0.00,VWS V14.00,2013-03-17 03:37:00,
2013-03-16 23:42:00,31.8,29.5,29.90,West,259,0.0,0.0,91,0.00,,FEW250,0.00,VWS V14.00,2013-03-17 03:42:00,
2013-03-16 23:47:00,31.8,29.5,29.91,West,259,0.0,0.0,91,0.00,,FEW250,0.00,VWS V14.00,2013-03-17 03:47:00,
2013-03-16 23:53:00,31.8,29.5,29.91,West,259,0.0,0.0,91,0.00,,FEW250,0.00,VWS V14.00,2013-03-17 03:53:00,
2013-03-16 23:58:00,31.8,29.5,29.91,West,259,0.0,0.0,91,0.00,,FEW250,0.00,VWS V14.00,2013-03-17 03:58:00,